Time;durP1;ratioP1;P1;durP2;ratioP2;P2;SDS_P1;SDS_P2;PMS_P1;PMS_P2;Temp;Humidity;BMP_temperature;BMP_pressure;BME280_temperature;BME280_humidity;BME280_pressure;Samples;Min_cycle;Max_cycle;Signal;HPM_P1;HPM_P2
2023/03/05 00:03:24;;;;;;;;;;;5.60;99.90;;;;;;8385449;28;19923;-70
2023/03/05 00:07:26;;;;;;;;;;;5.70;99.90;;;;;;8378557;28;19936;-70
2023/03/05 00:11:28;;;;;;;;;;;5.60;99.90;;;;;;8392369;28;19929;-70
2023/03/05 00:15:30;;;;;;;;;;;5.60;99.90;;;;;;8381683;28;20011;-70
2023/03/05 00:19:32;;;;;;;;;;;5.60;99.90;;;;;;8391532;28;19979;-70
2023/03/05 00:23:33;;;;;;;;;;;5.60;99.90;;;;;;8389998;28;20292;-70
2023/03/05 00:27:35;;;;;;;;;;;5.60;99.90;;;;;;8369340;28;19938;-70
2023/03/05 00:31:37;;;;;;;;;;;5.50;99.90;;;;;;8384899;28;19931;-70
2023/03/05 00:35:43;;;;;;;;;;;5.50;99.90;;;;;;8381003;28;19928;-70
2023/03/05 00:39:45;;;;;;;;;;;5.50;99.90;;;;;;8363141;28;19940;-70
2023/03/05 00:43:47;;;;;;;;;;;5.50;99.90;;;;;;8371518;28;19928;-70
2023/03/05 00:47:48;;;;;;;;;;;5.50;99.90;;;;;;8383465;28;19932;-70
2023/03/05 00:51:50;;;;;;;;;;;5.40;99.90;;;;;;8383702;28;20283;-70
2023/03/05 00:55:52;;;;;;;;;;;5.40;99.90;;;;;;8388269;28;19928;-70
2023/03/05 00:59:53;;;;;;;;;;;5.30;99.90;;;;;;8385575;28;19973;-70
2023/03/05 01:03:56;;;;;;;;;;;5.30;99.90;;;;;;8401770;28;19963;-70
2023/03/05 01:07:57;;;;;;;;;;;5.20;99.90;;;;;;8385744;28;20265;-70
2023/03/05 01:11:59;;;;;;;;;;;5.20;99.90;;;;;;8361714;28;19933;-70
2023/03/05 01:16:01;;;;;;;;;;;5.20;99.90;;;;;;8387189;28;19964;-70
2023/03/05 01:20:13;;;;;;;;;;;5.20;99.90;;;;;;8390316;28;19931;-70
2023/03/05 01:24:15;;;;;;;;;;;5.20;99.90;;;;;;8387731;28;19987;-70
2023/03/05 01:28:16;;;;;;;;;;;5.20;99.90;;;;;;8385195;28;19952;-70
2023/03/05 01:32:18;;;;;;;;;;;5.20;99.90;;;;;;8384130;28;19935;-70
2023/03/05 01:36:22;;;;;;;;;;;5.20;99.90;;;;;;8387299;28;20337;-70
2023/03/05 01:40:25;;;;;;;;;;;5.20;99.90;;;;;;8381005;28;19948;-70
2023/03/05 01:44:27;;;;;;;;;;;5.10;99.90;;;;;;8383765;28;19928;-70
2023/03/05 01:48:29;;;;;;;;;;;5.00;99.90;;;;;;8371702;28;20002;-70
2023/03/05 01:52:32;;;;;;;;;;;4.90;99.90;;;;;;8384488;28;19924;-70
2023/03/05 01:56:33;;;;;;;;;;;4.80;99.90;;;;;;8381818;28;19932;-70
2023/03/05 02:00:40;;;;;;;;;;;4.70;99.90;;;;;;8385824;28;19940;-70
2023/03/05 02:04:44;;;;;;;;;;;4.60;99.90;;;;;;8369018;28;19979;-70
2023/03/05 02:08:46;;;;;;;;;;;4.50;99.90;;;;;;8384783;28;19929;-70
2023/03/05 02:12:48;;;;;;;;;;;4.40;99.90;;;;;;8367552;28;19930;-70
2023/03/05 02:16:50;;;;;;;;;;;4.40;99.90;;;;;;8377698;28;19929;-70
2023/03/05 02:20:55;;;;;;;;;;;4.40;99.90;;;;;;8388542;28;19978;-70
2023/03/05 02:30:34;;;;;;;;;;;4.40;99.90;;;;;;8381280;28;19928;-70
2023/03/05 02:34:36;;;;;;;;;;;4.50;99.90;;;;;;8378466;28;20299;-70
2023/03/05 02:38:38;;;;;;;;;;;4.50;99.90;;;;;;8376688;28;19925;-70
2023/03/05 02:42:40;;;;;;;;;;;4.50;99.90;;;;;;8375352;28;19925;-69
2023/03/05 02:46:42;;;;;;;;;;;4.60;99.90;;;;;;8360323;28;19925;-69
2023/03/05 02:50:44;;;;;;;;;;;4.60;99.90;;;;;;8376925;28;19931;-69
2023/03/05 02:54:45;;;;;;;;;;;4.60;99.90;;;;;;8384951;28;19931;-69
2023/03/05 02:58:47;;;;;;;;;;;4.60;99.90;;;;;;8381579;28;20293;-69
2023/03/05 03:02:49;;;;;;;;;;;4.60;99.90;;;;;;8380513;28;20024;-70
2023/03/05 03:06:50;;;;;;;;;;;4.60;99.90;;;;;;8386429;28;19925;-69
2023/03/05 03:10:52;;;;;;;;;;;4.60;99.90;;;;;;8374204;28;19925;-69
2023/03/05 03:14:54;;;;;;;;;;;4.60;99.90;;;;;;8379977;28;20388;-69
2023/03/05 03:18:55;;;;;;;;;;;4.60;99.90;;;;;;8384148;28;19934;-69
2023/03/05 03:22:57;;;;;;;;;;;4.60;99.90;;;;;;8388947;28;19961;-69
2023/03/05 03:26:59;;;;;;;;;;;4.50;99.90;;;;;;8382689;28;19976;-70
2023/03/05 03:31:00;;;;;;;;;;;4.50;99.90;;;;;;8381976;28;20419;-70
2023/03/05 03:45:09;;;;;;;;;;;4.40;99.90;;;;;;8376696;28;19923;-69
2023/03/05 03:49:21;;;;;;;;;;;4.40;99.90;;;;;;8366281;28;19932;-69
2023/03/05 03:53:23;;;;;;;;;;;4.40;99.90;;;;;;8381897;28;19931;-69
2023/03/05 03:57:24;;;;;;;;;;;4.40;99.90;;;;;;8381071;28;20015;-70
2023/03/05 04:01:26;;;;;;;;;;;4.30;99.90;;;;;;8382261;28;19924;-70
2023/03/05 04:05:28;;;;;;;;;;;4.30;99.90;;;;;;8390882;28;20342;-70
2023/03/05 04:09:29;;;;;;;;;;;4.30;99.90;;;;;;8372623;28;20740;-70
2023/03/05 04:13:31;;;;;;;;;;;4.30;99.90;;;;;;8388823;28;19933;-69
2023/03/05 04:17:32;;;;;;;;;;;4.30;99.90;;;;;;8395640;28;19924;-69
2023/03/05 04:21:34;;;;;;;;;;;4.30;99.90;;;;;;8394971;28;19932;-69
2023/03/05 04:25:36;;;;;;;;;;;4.30;99.90;;;;;;8367731;28;20027;-70
2023/03/05 04:29:37;;;;;;;;;;;4.30;99.90;;;;;;8386096;28;19946;-70
2023/03/05 04:33:39;;;;;;;;;;;4.30;99.90;;;;;;8367959;28;19961;-70
2023/03/05 04:37:40;;;;;;;;;;;4.30;99.90;;;;;;8383911;28;19943;-70
2023/03/05 04:41:42;;;;;;;;;;;4.30;99.90;;;;;;8374255;28;19924;-70
2023/03/05 04:45:44;;;;;;;;;;;4.40;99.90;;;;;;8377099;28;19928;-70
2023/03/05 04:49:45;;;;;;;;;;;4.40;99.90;;;;;;8378571;28;19939;-70
2023/03/05 04:53:47;;;;;;;;;;;4.40;99.90;;;;;;8384155;28;19964;-70
2023/03/05 04:57:48;;;;;;;;;;;4.40;99.90;;;;;;8370095;28;19924;-70
2023/03/05 05:01:50;;;;;;;;;;;4.40;99.90;;;;;;8378334;28;19931;-69
2023/03/05 05:05:56;;;;;;;;;;;4.40;99.90;;;;;;8387773;28;19925;-69
2023/03/05 05:09:57;;;;;;;;;;;4.30;99.90;;;;;;8397312;28;19929;-69
2023/03/05 05:13:59;;;;;;;;;;;4.30;99.90;;;;;;8363285;28;19932;-70
2023/03/05 05:18:01;;;;;;;;;;;4.30;99.90;;;;;;8398797;28;19950;-70
2023/03/05 05:22:02;;;;;;;;;;;4.30;99.90;;;;;;8377285;28;20428;-70
2023/03/05 05:26:05;;;;;;;;;;;4.20;99.90;;;;;;8370086;28;19951;-70
2023/03/05 05:30:08;;;;;;;;;;;4.30;99.90;;;;;;8383738;28;20122;-70
2023/03/05 05:34:09;;;;;;;;;;;4.20;99.90;;;;;;8373283;28;19970;-70
2023/03/05 05:38:11;;;;;;;;;;;4.20;99.90;;;;;;8354039;28;20394;-70
2023/03/05 05:42:12;;;;;;;;;;;4.20;99.90;;;;;;8371579;28;19932;-70
2023/03/05 05:46:15;;;;;;;;;;;4.20;99.90;;;;;;8373547;28;20331;-69
2023/03/05 05:50:19;;;;;;;;;;;4.20;99.90;;;;;;8369053;28;21357;-69
2023/03/05 05:54:21;;;;;;;;;;;4.20;99.90;;;;;;8369552;28;19932;-70
2023/03/05 05:58:22;;;;;;;;;;;4.20;99.90;;;;;;8387534;28;19925;-70
2023/03/05 06:02:26;;;;;;;;;;;4.10;99.90;;;;;;8378326;28;19928;-70
2023/03/05 06:06:28;;;;;;;;;;;4.10;99.90;;;;;;8364111;28;20418;-70
2023/03/05 06:10:29;;;;;;;;;;;4.10;99.90;;;;;;8369325;28;19940;-70
2023/03/05 06:14:31;;;;;;;;;;;4.10;99.90;;;;;;8367185;28;19975;-70
2023/03/05 06:18:33;;;;;;;;;;;4.10;99.90;;;;;;8382715;28;19947;-70
2023/03/05 06:22:36;;;;;;;;;;;4.10;99.90;;;;;;8381942;28;19978;-70
2023/03/05 06:26:38;;;;;;;;;;;4.10;99.90;;;;;;8378311;28;20020;-70
2023/03/05 06:30:39;;;;;;;;;;;4.10;99.90;;;;;;8374604;28;19929;-70
2023/03/05 06:34:41;;;;;;;;;;;4.10;99.90;;;;;;8376312;28;19932;-70
2023/03/05 06:38:43;;;;;;;;;;;4.20;99.90;;;;;;8382007;28;19924;-69
2023/03/05 06:42:44;;;;;;;;;;;4.20;99.90;;;;;;8378973;28;19928;-70
2023/03/05 06:46:46;;;;;;;;;;;4.20;99.90;;;;;;8373108;28;19928;-70
2023/03/05 06:50:48;;;;;;;;;;;4.20;99.90;;;;;;8372671;28;19928;-70
2023/03/05 06:54:50;;;;;;;;;;;4.20;99.90;;;;;;8379843;28;19931;-70
2023/03/05 06:58:51;;;;;;;;;;;4.20;99.90;;;;;;8379065;28;19925;-70
2023/03/05 07:02:53;;;;;;;;;;;4.10;99.90;;;;;;8388300;28;19924;-70
2023/03/05 07:06:55;;;;;;;;;;;4.20;99.90;;;;;;8387173;28;20354;-70
2023/03/05 07:10:57;;;;;;;;;;;4.10;99.90;;;;;;8362946;28;19961;-70
2023/03/05 07:14:59;;;;;;;;;;;4.10;99.90;;;;;;8382927;28;20027;-69
2023/03/05 07:19:03;;;;;;;;;;;4.20;99.90;;;;;;8372655;28;19924;-70
2023/03/05 07:23:04;;;;;;;;;;;4.20;99.90;;;;;;8377366;28;19924;-69
2023/03/05 07:27:06;;;;;;;;;;;4.20;99.90;;;;;;8392408;28;19956;-69
2023/03/05 07:31:11;;;;;;;;;;;4.30;99.90;;;;;;8385414;28;20035;-69
2023/03/05 07:35:13;;;;;;;;;;;4.40;99.90;;;;;;8386765;28;19970;-70
2023/03/05 07:39:17;;;;;;;;;;;4.40;99.90;;;;;;8399007;28;19935;-69
2023/03/05 07:43:19;;;;;;;;;;;4.50;99.90;;;;;;8387435;28;19954;-69
2023/03/05 07:47:22;;;;;;;;;;;4.60;99.90;;;;;;8386293;28;19931;-70
2023/03/05 07:51:24;;;;;;;;;;;4.70;99.90;;;;;;8387888;28;19972;-70
2023/03/05 07:55:26;;;;;;;;;;;4.70;99.90;;;;;;8387893;28;20296;-70
2023/03/05 07:59:27;;;;;;;;;;;4.80;99.90;;;;;;8386198;28;19929;-69
2023/03/05 08:03:29;;;;;;;;;;;4.80;99.90;;;;;;8373100;28;19956;-69
2023/03/05 08:07:31;;;;;;;;;;;4.90;99.90;;;;;;8380928;28;19939;-70
2023/03/05 08:11:32;;;;;;;;;;;4.90;99.90;;;;;;8392317;28;19947;-69
2023/03/05 08:15:35;;;;;;;;;;;4.90;99.90;;;;;;8389860;28;19963;-70
2023/03/05 08:19:37;;;;;;;;;;;4.90;99.90;;;;;;8384877;28;20309;-69
2023/03/05 08:23:39;;;;;;;;;;;4.90;99.90;;;;;;8380528;28;20015;-69
2023/03/05 08:27:41;;;;;;;;;;;4.90;99.90;;;;;;8388476;28;19929;-69
2023/03/05 08:31:46;;;;;;;;;;;4.90;99.90;;;;;;8386021;28;19924;-69
2023/03/05 08:35:48;;;;;;;;;;;4.90;99.90;;;;;;8384689;28;20319;-69
2023/03/05 08:39:49;;;;;;;;;;;5.00;99.90;;;;;;8377065;28;19970;-69
2023/03/05 08:43:51;;;;;;;;;;;5.00;99.90;;;;;;8381962;28;19939;-70
2023/03/05 08:47:53;;;;;;;;;;;5.10;99.90;;;;;;8390892;28;19933;-69
2023/03/05 08:51:55;;;;;;;;;;;5.20;99.90;;;;;;8380498;28;20398;-70
2023/03/05 08:55:57;;;;;;;;;;;5.30;99.90;;;;;;8371562;28;19929;-70
2023/03/05 08:59:58;;;;;;;;;;;5.50;99.90;;;;;;8392104;28;19971;-69
2023/03/05 09:04:00;;;;;;;;;;;5.60;99.90;;;;;;8385096;28;19939;-69
2023/03/05 09:08:02;;;;;;;;;;;5.80;99.90;;;;;;8401197;28;19924;-69
2023/03/05 09:12:03;;;;;;;;;;;5.90;99.90;;;;;;8389996;28;19924;-70
2023/03/05 09:16:06;;;;;;;;;;;6.00;99.90;;;;;;8389539;28;19928;-69
2023/03/05 09:20:10;;;;;;;;;;;6.20;99.90;;;;;;8395677;28;19935;-69
2023/03/05 09:24:12;;;;;;;;;;;6.30;99.90;;;;;;8389219;28;19924;-70
2023/03/05 09:28:13;;;;;;;;;;;6.40;99.90;;;;;;8385684;28;19924;-69
2023/03/05 09:32:15;;;;;;;;;;;6.50;99.90;;;;;;8385361;28;20280;-69
2023/03/05 09:36:21;;;;;;;;;;;6.50;99.90;;;;;;8374431;28;20360;-69
2023/03/05 09:40:24;;;;;;;;;;;6.40;99.90;;;;;;8383972;28;19931;-69
2023/03/05 09:44:29;;;;;;;;;;;6.40;99.90;;;;;;8395585;28;19929;-69
2023/03/05 09:48:42;;;;;;;;;;;6.40;99.90;;;;;;8390845;28;19935;-69
2023/03/05 09:52:45;;;;;;;;;;;6.30;99.90;;;;;;8373295;28;19925;-69
2023/03/05 09:56:55;;;;;;;;;;;6.30;99.90;;;;;;8383157;28;19939;-70
2023/03/05 10:00:59;;;;;;;;;;;6.30;99.90;;;;;;8383651;28;20300;-69
2023/03/05 10:05:03;;;;;;;;;;;6.30;99.90;;;;;;8383312;28;20023;-69
2023/03/05 10:09:09;;;;;;;;;;;6.40;99.90;;;;;;8387567;28;19951;-69
2023/03/05 10:13:14;;;;;;;;;;;6.50;99.90;;;;;;8373722;28;19963;-69
2023/03/05 10:17:26;;;;;;;;;;;6.50;99.90;;;;;;8383663;28;19935;-69
2023/03/05 10:21:37;;;;;;;;;;;6.60;99.90;;;;;;8374683;28;20352;-69
2023/03/05 10:25:59;;;;;;;;;;;6.60;99.90;;;;;;8378833;28;19970;-69
2023/03/05 10:30:07;;;;;;;;;;;6.60;99.90;;;;;;8378504;28;19976;-69
2023/03/05 10:34:15;;;;;;;;;;;6.70;99.90;;;;;;8383496;28;19968;-69
2023/03/05 10:38:26;;;;;;;;;;;6.80;99.90;;;;;;8386909;28;19968;-69
2023/03/05 10:42:44;;;;;;;;;;;7.00;99.90;;;;;;8394657;28;19980;-69
2023/03/05 10:46:46;;;;;;;;;;;7.20;99.90;;;;;;8384415;28;20622;-69
2023/03/05 10:50:50;;;;;;;;;;;7.40;99.90;;;;;;8382530;28;19956;-70
2023/03/05 10:54:52;;;;;;;;;;;7.50;99.90;;;;;;8387456;28;19931;-69
2023/03/05 10:58:54;;;;;;;;;;;7.60;99.90;;;;;;8381868;28;19925;-69
2023/03/05 11:02:58;;;;;;;;;;;7.70;99.90;;;;;;8363966;28;19924;-70
2023/03/05 11:07:04;;;;;;;;;;;7.70;99.90;;;;;;8386235;28;19924;-69
2023/03/05 11:11:08;;;;;;;;;;;7.80;99.90;;;;;;8385787;28;20034;-69
2023/03/05 11:15:13;;;;;;;;;;;7.90;99.90;;;;;;8378151;28;19931;-69
2023/03/05 11:19:18;;;;;;;;;;;7.90;99.90;;;;;;8378285;28;19937;-69
2023/03/05 11:23:23;;;;;;;;;;;7.90;99.90;;;;;;8373525;28;19943;-69
2023/03/05 11:27:31;;;;;;;;;;;7.70;99.90;;;;;;8377853;28;19924;-70
2023/03/05 11:31:33;;;;;;;;;;;7.60;99.90;;;;;;8384918;28;19960;-69
2023/03/05 11:35:36;;;;;;;;;;;7.60;99.90;;;;;;8379320;28;20068;-69
2023/03/05 11:39:39;;;;;;;;;;;7.70;99.90;;;;;;8374414;28;19930;-70
2023/03/05 11:43:41;;;;;;;;;;;7.80;99.90;;;;;;8365254;28;19925;-69
2023/03/05 11:47:46;;;;;;;;;;;7.80;99.90;;;;;;8357064;28;20016;-69
2023/03/05 11:51:58;;;;;;;;;;;7.80;99.90;;;;;;8372405;28;19935;-70
2023/03/05 11:56:06;;;;;;;;;;;7.80;99.90;;;;;;8358598;28;19925;-69
2023/03/05 12:00:11;;;;;;;;;;;7.70;99.90;;;;;;8355010;28;20411;-70
2023/03/05 12:04:14;;;;;;;;;;;7.80;99.90;;;;;;8357262;28;19939;-70
2023/03/05 12:08:24;;;;;;;;;;;7.90;99.90;;;;;;8355240;28;19970;-69
2023/03/05 12:12:44;;;;;;;;;;;8.00;99.90;;;;;;8354181;28;20303;-69
2023/03/05 12:16:50;;;;;;;;;;;8.30;99.90;;;;;;8361787;28;19925;-69
2023/03/05 12:20:56;;;;;;;;;;;8.40;99.90;;;;;;8367768;28;20035;-69
2023/03/05 12:25:30;;;;;;;;;;;8.50;99.90;;;;;;8346251;28;20402;-69
2023/03/05 12:29:31;;;;;;;;;;;8.80;99.90;;;;;;8331393;28;20007;-69
2023/03/05 12:33:35;;;;;;;;;;;8.80;99.90;;;;;;8361925;28;19936;-69
2023/03/05 12:37:56;;;;;;;;;;;8.80;99.90;;;;;;8362406;28;20019;-69
2023/03/05 12:41:57;;;;;;;;;;;8.80;99.90;;;;;;8361853;28;19929;-69
2023/03/05 12:46:18;;;;;;;;;;;8.90;99.90;;;;;;8363016;28;19928;-69
2023/03/05 12:50:26;;;;;;;;;;;9.00;99.90;;;;;;8362647;28;19928;-70
2023/03/05 12:54:30;;;;;;;;;;;9.20;99.90;;;;;;8362520;28;19929;-70
2023/03/05 12:58:38;;;;;;;;;;;9.40;99.90;;;;;;8363104;28;19932;-69
2023/03/05 13:02:42;;;;;;;;;;;9.50;99.90;;;;;;8357675;28;20296;-70
2023/03/05 13:06:43;;;;;;;;;;;9.40;99.90;;;;;;8359223;28;19935;-69
2023/03/05 13:10:59;;;;;;;;;;;9.30;99.90;;;;;;8359161;28;19931;-69
2023/03/05 13:15:02;;;;;;;;;;;9.10;99.90;;;;;;8362970;28;19929;-70
2023/03/05 13:19:13;;;;;;;;;;;8.90;99.90;;;;;;8365439;28;20024;-69
2023/03/05 13:23:17;;;;;;;;;;;8.80;99.90;;;;;;8359474;28;20011;-69
2023/03/05 13:27:23;;;;;;;;;;;8.70;99.90;;;;;;8365161;28;19929;-69
2023/03/05 13:31:24;;;;;;;;;;;8.60;99.90;;;;;;8360717;28;19938;-70
2023/03/05 13:35:26;;;;;;;;;;;8.60;99.90;;;;;;8352729;28;20011;-70
2023/03/05 13:39:36;;;;;;;;;;;8.50;99.90;;;;;;8357213;28;19928;-70
2023/03/05 13:43:42;;;;;;;;;;;8.50;99.90;;;;;;8363322;28;19932;-70
2023/03/05 13:47:50;;;;;;;;;;;8.40;99.90;;;;;;8359541;28;19925;-70
2023/03/05 13:51:53;;;;;;;;;;;8.40;99.90;;;;;;8358345;28;20016;-70
2023/03/05 13:55:56;;;;;;;;;;;8.20;99.90;;;;;;8352388;28;19931;-69
2023/03/05 13:59:59;;;;;;;;;;;8.20;99.90;;;;;;8360095;28;19950;-69
2023/03/05 14:04:00;;;;;;;;;;;8.20;99.90;;;;;;8362120;28;19928;-69
2023/03/05 14:08:02;;;;;;;;;;;8.20;99.90;;;;;;8373100;28;20019;-69
2023/03/05 14:12:05;;;;;;;;;;;8.30;99.90;;;;;;8360543;28;19931;-69
2023/03/05 14:16:08;;;;;;;;;;;8.30;99.90;;;;;;8360916;28;19940;-69
2023/03/05 14:20:10;;;;;;;;;;;8.40;99.90;;;;;;8357615;28;20490;-70
2023/03/05 14:24:22;;;;;;;;;;;8.40;99.90;;;;;;8358655;28;19964;-69
2023/03/05 14:28:26;;;;;;;;;;;8.30;99.90;;;;;;8360734;28;19928;-70
2023/03/05 14:32:28;;;;;;;;;;;8.10;99.90;;;;;;8373316;28;19971;-70
2023/03/05 14:36:30;;;;;;;;;;;8.00;99.90;;;;;;8358326;28;19925;-69
2023/03/05 14:40:32;;;;;;;;;;;7.80;99.90;;;;;;8357478;28;19928;-69
2023/03/05 14:44:34;;;;;;;;;;;7.50;99.90;;;;;;8352584;28;20356;-69
2023/03/05 14:48:36;;;;;;;;;;;7.20;99.90;;;;;;8355888;28;19976;-69
2023/03/05 14:52:37;;;;;;;;;;;6.80;99.90;;;;;;8359917;28;19936;-69
2023/03/05 14:56:39;;;;;;;;;;;6.40;99.90;;;;;;8352609;28;20695;-70
2023/03/05 15:00:40;;;;;;;;;;;6.10;99.90;;;;;;8357910;28;20051;-69
2023/03/05 15:04:44;;;;;;;;;;;6.00;99.90;;;;;;8354227;28;20019;-69
2023/03/05 15:08:46;;;;;;;;;;;5.90;99.90;;;;;;8375217;28;20364;-70
2023/03/05 15:12:49;;;;;;;;;;;6.00;99.90;;;;;;8355909;28;20375;-70
2023/03/05 15:16:51;;;;;;;;;;;6.00;99.90;;;;;;8364087;28;19947;-70
2023/03/05 15:20:52;;;;;;;;;;;6.10;99.90;;;;;;8357263;28;19932;-70
2023/03/05 15:24:54;;;;;;;;;;;6.20;99.90;;;;;;8359796;28;20234;-70
2023/03/05 15:28:56;;;;;;;;;;;6.40;99.90;;;;;;8356338;28;20027;-70
2023/03/05 15:33:05;;;;;;;;;;;6.40;99.90;;;;;;8355851;28;19932;-70
2023/03/05 15:37:07;;;;;;;;;;;6.60;99.90;;;;;;8360130;28;20390;-70
2023/03/05 15:41:09;;;;;;;;;;;6.80;99.90;;;;;;8358935;28;19936;-70
2023/03/05 15:45:10;;;;;;;;;;;7.00;99.90;;;;;;8358375;28;19933;-70
2023/03/05 15:49:12;;;;;;;;;;;7.20;99.90;;;;;;8374062;28;19930;-70
2023/03/05 15:53:15;;;;;;;;;;;7.30;99.90;;;;;;8352922;28;20032;-70
2023/03/05 15:57:18;;;;;;;;;;;7.30;99.90;;;;;;8354372;28;19948;-70
2023/03/05 16:01:21;;;;;;;;;;;7.40;99.90;;;;;;8361565;28;19928;-70
2023/03/05 16:05:22;;;;;;;;;;;7.40;99.90;;;;;;8359848;28;19932;-70
2023/03/05 16:09:25;;;;;;;;;;;7.30;99.90;;;;;;8359787;28;20307;-69
2023/03/05 16:13:28;;;;;;;;;;;7.30;99.90;;;;;;8361870;28;20027;-69
2023/03/05 16:17:30;;;;;;;;;;;7.20;99.90;;;;;;8381413;28;19979;-69
2023/03/05 16:21:31;;;;;;;;;;;7.00;99.90;;;;;;8365138;28;19925;-70
2023/03/05 16:25:33;;;;;;;;;;;6.90;99.90;;;;;;8341895;28;19928;-70
2023/03/05 16:29:35;;;;;;;;;;;6.90;99.90;;;;;;8361859;28;19933;-69
2023/03/05 16:33:36;;;;;;;;;;;6.80;99.90;;;;;;8358995;28;20385;-69
2023/03/05 16:37:39;;;;;;;;;;;6.80;99.90;;;;;;8363248;28;19937;-69
2023/03/05 16:41:40;;;;;;;;;;;6.80;99.90;;;;;;8363215;28;19929;-69
2023/03/05 16:45:42;;;;;;;;;;;6.80;99.90;;;;;;8370003;28;20391;-69
2023/03/05 16:49:43;;;;;;;;;;;6.80;99.90;;;;;;8370082;28;20027;-69
2023/03/05 16:53:45;;;;;;;;;;;6.70;99.90;;;;;;8357653;28;20015;-70
2023/03/05 16:57:47;;;;;;;;;;;6.60;99.90;;;;;;8362839;28;19924;-70
2023/03/05 17:01:48;;;;;;;;;;;6.60;99.90;;;;;;8358529;28;20080;-69
2023/03/05 17:05:50;;;;;;;;;;;6.50;99.90;;;;;;8359728;28;19925;-69
2023/03/05 17:09:52;;;;;;;;;;;6.50;99.90;;;;;;8340893;28;19925;-70
2023/03/05 17:13:54;;;;;;;;;;;6.40;99.90;;;;;;8372509;28;19940;-70
2023/03/05 17:17:56;;;;;;;;;;;6.40;99.90;;;;;;8359515;28;19924;-70
2023/03/05 17:21:57;;;;;;;;;;;6.30;99.90;;;;;;8341810;28;19988;-70
2023/03/05 17:26:01;;;;;;;;;;;6.30;99.90;;;;;;8355498;28;20317;-70
2023/03/05 17:30:03;;;;;;;;;;;6.20;99.90;;;;;;8342400;28;20392;-70
2023/03/05 17:34:05;;;;;;;;;;;6.20;99.90;;;;;;8364546;28;20371;-69
2023/03/05 17:38:09;;;;;;;;;;;6.20;99.90;;;;;;8358113;28;19925;-69
2023/03/05 17:42:11;;;;;;;;;;;6.20;99.90;;;;;;8384203;28;19928;-70
2023/03/05 17:46:14;;;;;;;;;;;6.10;99.90;;;;;;8364220;28;19930;-70
2023/03/05 17:50:15;;;;;;;;;;;6.10;99.90;;;;;;8350240;28;19924;-70
2023/03/05 17:54:17;;;;;;;;;;;6.10;99.90;;;;;;8353526;28;19929;-70
2023/03/05 17:58:19;;;;;;;;;;;6.10;99.90;;;;;;8359560;28;19933;-70
2023/03/05 18:02:20;;;;;;;;;;;6.00;99.90;;;;;;8370038;28;19928;-70
2023/03/05 18:06:22;;;;;;;;;;;6.00;99.90;;;;;;8363528;28;20459;-70
2023/03/05 18:10:25;;;;;;;;;;;6.00;99.90;;;;;;8352060;28;20047;-70
2023/03/05 18:14:27;;;;;;;;;;;6.00;99.90;;;;;;8337791;28;19932;-70
2023/03/05 18:18:29;;;;;;;;;;;6.00;99.90;;;;;;8362945;28;19971;-70
2023/03/05 18:22:30;;;;;;;;;;;6.00;99.90;;;;;;8356264;28;19940;-70
2023/03/05 18:26:32;;;;;;;;;;;6.00;99.90;;;;;;8356928;28;19931;-70
2023/03/05 18:30:34;;;;;;;;;;;5.90;99.90;;;;;;8359813;28;19972;-70
2023/03/05 18:34:36;;;;;;;;;;;5.90;99.90;;;;;;8358274;28;19932;-70
2023/03/05 18:38:37;;;;;;;;;;;5.90;99.90;;;;;;8360102;28;20028;-69
2023/03/05 18:42:39;;;;;;;;;;;5.90;99.90;;;;;;8353878;28;20682;-70
2023/03/05 18:46:40;;;;;;;;;;;5.80;99.90;;;;;;8358103;28;19939;-70
2023/03/05 18:50:42;;;;;;;;;;;5.80;99.90;;;;;;8377752;28;20377;-70
2023/03/05 18:54:44;;;;;;;;;;;5.70;99.90;;;;;;8359938;28;20031;-70
2023/03/05 18:58:46;;;;;;;;;;;5.70;99.90;;;;;;8355923;28;19960;-70
2023/03/05 19:02:48;;;;;;;;;;;5.70;99.90;;;;;;8354859;28;19929;-69
2023/03/05 19:06:50;;;;;;;;;;;5.70;99.90;;;;;;8355802;28;19960;-69
2023/03/05 19:10:51;;;;;;;;;;;5.60;99.90;;;;;;8363780;28;20264;-69
2023/03/05 19:14:53;;;;;;;;;;;5.60;99.90;;;;;;8336764;28;19929;-70
2023/03/05 19:19:01;;;;;;;;;;;5.60;99.90;;;;;;8359032;28;19960;-70
2023/03/05 19:23:02;;;;;;;;;;;5.50;99.90;;;;;;8358779;28;19943;-70
2023/03/05 19:27:09;;;;;;;;;;;5.50;99.90;;;;;;8351058;28;19928;-70
2023/03/05 19:31:12;;;;;;;;;;;5.50;99.90;;;;;;8380090;28;19924;-70
2023/03/05 19:35:15;;;;;;;;;;;5.50;99.90;;;;;;8384435;28;20277;-70
2023/03/05 19:39:18;;;;;;;;;;;5.40;99.90;;;;;;8376941;28;20419;-70
2023/03/05 19:43:20;;;;;;;;;;;5.40;99.90;;;;;;8361498;28;19932;-70
2023/03/05 19:47:23;;;;;;;;;;;5.30;99.90;;;;;;8381906;28;20018;-70
2023/03/05 19:51:24;;;;;;;;;;;5.30;99.90;;;;;;8367626;28;20033;-70
2023/03/05 19:55:27;;;;;;;;;;;5.30;99.90;;;;;;8365227;28;19925;-70
2023/03/05 19:59:28;;;;;;;;;;;5.20;99.90;;;;;;8353763;28;20031;-69
2023/03/05 20:03:30;;;;;;;;;;;5.20;99.90;;;;;;8377945;28;19932;-70
2023/03/05 20:07:32;;;;;;;;;;;5.10;99.90;;;;;;8362978;28;20026;-69
2023/03/05 20:11:34;;;;;;;;;;;5.00;99.90;;;;;;8366692;28;19932;-70
2023/03/05 20:15:35;;;;;;;;;;;5.00;99.90;;;;;;8362887;28;20379;-69
2023/03/05 20:19:37;;;;;;;;;;;5.00;99.90;;;;;;8346816;28;19931;-70
2023/03/05 20:23:39;;;;;;;;;;;4.90;99.90;;;;;;8345064;28;19939;-69
2023/03/05 20:27:41;;;;;;;;;;;4.80;99.90;;;;;;8359313;28;19939;-70
2023/03/05 20:31:42;;;;;;;;;;;4.80;99.90;;;;;;8365609;28;19951;-70
2023/03/05 20:35:44;;;;;;;;;;;4.70;99.90;;;;;;8352823;28;19925;-70
2023/03/05 20:39:46;;;;;;;;;;;4.70;99.90;;;;;;8362355;28;19929;-70
2023/03/05 20:43:48;;;;;;;;;;;4.60;99.90;;;;;;8357815;28;19933;-70
2023/03/05 20:47:49;;;;;;;;;;;4.60;99.90;;;;;;8362740;28;19925;-70
2023/03/05 20:51:54;;;;;;;;;;;4.60;99.90;;;;;;8347341;28;20043;-69
2023/03/05 20:55:55;;;;;;;;;;;4.50;99.90;;;;;;8344650;28;20361;-69
2023/03/05 20:59:58;;;;;;;;;;;4.50;99.90;;;;;;8352160;28;19928;-69
2023/03/05 21:04:00;;;;;;;;;;;4.50;99.90;;;;;;8360921;28;19943;-70
2023/03/05 21:08:03;;;;;;;;;;;4.50;99.90;;;;;;8359065;28;20407;-69
2023/03/05 21:12:04;;;;;;;;;;;4.50;99.90;;;;;;8357560;28;19935;-69
2023/03/05 21:16:07;;;;;;;;;;;4.50;99.90;;;;;;8354142;28;19932;-70
2023/03/05 21:20:11;;;;;;;;;;;4.50;99.90;;;;;;8361146;28;19936;-70
2023/03/05 21:24:15;;;;;;;;;;;4.50;99.90;;;;;;8353987;28;19931;-70
2023/03/05 21:28:17;;;;;;;;;;;4.50;99.90;;;;;;8359338;28;20376;-70
2023/03/05 21:32:19;;;;;;;;;;;4.50;99.90;;;;;;8356425;28;19932;-69
2023/03/05 21:36:20;;;;;;;;;;;4.50;99.90;;;;;;8361962;28;20006;-69
2023/03/05 21:40:22;;;;;;;;;;;4.50;99.90;;;;;;8371226;28;19939;-69
2023/03/05 21:44:24;;;;;;;;;;;4.50;99.90;;;;;;8358515;28;19976;-69
2023/03/05 21:48:25;;;;;;;;;;;4.40;99.90;;;;;;8357154;28;19971;-69
2023/03/05 21:52:27;;;;;;;;;;;4.40;99.90;;;;;;8360117;28;19924;-69
2023/03/05 21:56:29;;;;;;;;;;;4.30;99.90;;;;;;8359077;28;19929;-69
2023/03/05 22:00:31;;;;;;;;;;;4.20;99.90;;;;;;8345398;28;19925;-69
2023/03/05 22:04:33;;;;;;;;;;;4.20;99.90;;;;;;8359344;28;19971;-69
2023/03/05 22:08:34;;;;;;;;;;;4.20;99.90;;;;;;8303875;28;2004799;-69
2023/03/05 22:13:04;;;;;;;;;;;4.20;99.90;;;;;;8386538;28;19964;-70
2023/03/05 22:17:06;;;;;;;;;;;4.20;99.90;;;;;;8376878;28;19975;-70
2023/03/05 22:21:15;;;;;;;;;;;4.20;99.90;;;;;;8382268;28;19976;-70
2023/03/05 22:25:16;;;;;;;;;;;4.20;99.90;;;;;;8376554;28;20300;-70
2023/03/05 22:29:18;;;;;;;;;;;4.20;99.90;;;;;;8388447;28;19932;-70
2023/03/05 22:33:20;;;;;;;;;;;4.20;99.90;;;;;;8388317;28;19932;-69
2023/03/05 22:37:23;;;;;;;;;;;4.20;99.90;;;;;;8366200;28;20273;-70
2023/03/05 22:41:25;;;;;;;;;;;4.20;99.90;;;;;;8380558;28;19968;-70
2023/03/05 22:45:27;;;;;;;;;;;4.20;99.90;;;;;;8380295;28;20031;-70
2023/03/05 22:49:29;;;;;;;;;;;4.10;99.90;;;;;;8381011;28;20378;-70
2023/03/05 22:53:31;;;;;;;;;;;4.10;99.90;;;;;;8382883;28;19932;-69
2023/03/05 22:57:32;;;;;;;;;;;4.00;99.90;;;;;;8379548;28;19940;-69
2023/03/05 23:01:34;;;;;;;;;;;4.00;99.90;;;;;;8384558;28;19924;-69
2023/03/05 23:05:37;;;;;;;;;;;4.00;99.90;;;;;;8377220;28;19933;-69
2023/03/05 23:09:38;;;;;;;;;;;3.90;99.90;;;;;;8378513;28;19931;-70
2023/03/05 23:13:40;;;;;;;;;;;3.90;99.90;;;;;;8368362;28;19925;-69
2023/03/05 23:17:42;;;;;;;;;;;3.80;99.90;;;;;;8383585;28;20669;-69
2023/03/05 23:21:43;;;;;;;;;;;3.80;99.90;;;;;;8370756;28;19983;-69
2023/03/05 23:25:48;;;;;;;;;;;3.70;99.90;;;;;;8371577;28;19933;-69
2023/03/05 23:30:26;;;;;;;;;;;3.70;99.90;;;;;;8379124;28;20335;-69
2023/03/05 23:34:21;;;;;;;;;;;3.70;99.90;;;;;;8381954;28;19924;-69
2023/03/05 23:38:23;;;;;;;;;;;3.70;99.90;;;;;;8363400;28;19924;-69
2023/03/05 23:42:25;;;;;;;;;;;3.60;99.90;;;;;;8372052;28;20356;-70
2023/03/05 23:46:26;;;;;;;;;;;3.60;99.90;;;;;;8385009;28;19932;-70
2023/03/05 23:50:30;;;;;;;;;;;3.50;99.90;;;;;;8385392;28;19928;-70
2023/03/05 23:54:32;;;;;;;;;;;3.50;99.90;;;;;;8383345;28;19928;-70
2023/03/05 23:58:34;;;;;;;;;;;3.40;99.90;;;;;;8384013;28;20121;-70
